sensor_id;sensor_type;location;lat;lon;timestamp;pressure;altitude;pressure_sealevel;temperature;humidity
71194;BME280;58903;47.210;8.618;2022-11-30T00:02:13;94251.69;;;25.01;45.39
71194;BME280;58903;47.210;8.618;2022-11-30T00:05:17;94246.19;;;25.01;44.66
71194;BME280;58903;47.210;8.618;2022-11-30T00:07:53;94250.44;;;25.02;45.75
71194;BME280;58903;47.210;8.618;2022-11-30T00:10:24;94242.16;;;25.02;44.96
71194;BME280;58903;47.210;8.618;2022-11-30T00:13:01;94238.44;;;24.99;44.89
71194;BME280;58903;47.210;8.618;2022-11-30T00:15:41;94237.19;;;25.00;45.48
71194;BME280;58903;47.210;8.618;2022-11-30T00:18:13;94237.19;;;25.00;45.19
71194;BME280;58903;47.210;8.618;2022-11-30T00:20:58;94234.94;;;24.99;45.69
71194;BME280;58903;47.210;8.618;2022-11-30T00:23:59;94243.44;;;25.01;45.75
71194;BME280;58903;47.210;8.618;2022-11-30T00:26:25;94240.47;;;24.99;45.49
71194;BME280;58903;47.210;8.618;2022-11-30T00:28:51;94247.19;;;24.98;44.82
71194;BME280;58903;47.210;8.618;2022-11-30T00:31:18;94246.19;;;25.01;44.75
71194;BME280;58903;47.210;8.618;2022-11-30T00:33:44;94237.94;;;25.01;45.69
71194;BME280;58903;47.210;8.618;2022-11-30T00:36:14;94237.72;;;24.99;45.08
71194;BME280;58903;47.210;8.618;2022-11-30T00:38:40;94239.19;;;25.00;44.86
71194;BME280;58903;47.210;8.618;2022-11-30T00:41:20;94231.69;;;25.00;45.51
71194;BME280;58903;47.210;8.618;2022-11-30T00:43:46;94234.44;;;25.00;44.87
71194;BME280;58903;47.210;8.618;2022-11-30T00:46:23;94230.94;;;25.00;44.99
71194;BME280;58903;47.210;8.618;2022-11-30T00:48:50;94237.94;;;25.01;45.06
71194;BME280;58903;47.210;8.618;2022-11-30T00:51:17;94239.94;;;25.00;45.34
71194;BME280;58903;47.210;8.618;2022-11-30T00:53:54;94236.44;;;25.00;45.04
71194;BME280;58903;47.210;8.618;2022-11-30T00:56:20;94232.94;;;24.99;45.33
71194;BME280;58903;47.210;8.618;2022-11-30T00:58:50;94237.19;;;25.00;44.94
71194;BME280;58903;47.210;8.618;2022-11-30T01:01:16;94241.94;;;25.00;45.55
71194;BME280;58903;47.210;8.618;2022-11-30T01:03:44;94239.19;;;25.00;45.69
71194;BME280;58903;47.210;8.618;2022-11-30T01:06:13;94240.69;;;25.01;44.71
71194;BME280;58903;47.210;8.618;2022-11-30T01:08:39;94237.19;;;25.00;44.85
71194;BME280;58903;47.210;8.618;2022-11-30T01:11:10;94238.94;;;24.98;45.18
71194;BME280;58903;47.210;8.618;2022-11-30T01:13:40;94237.94;;;25.01;45.02
71194;BME280;58903;47.210;8.618;2022-11-30T01:16:15;94242.69;;;25.00;45.31
71194;BME280;58903;47.210;8.618;2022-11-30T01:18:43;94235.91;;;25.01;45.11
71194;BME280;58903;47.210;8.618;2022-11-30T01:21:19;94244.16;;;25.01;44.90
71194;BME280;58903;47.210;8.618;2022-11-30T01:23:50;94240.69;;;25.01;45.51
71194;BME280;58903;47.210;8.618;2022-11-30T01:26:24;94246.19;;;25.01;45.09
71194;BME280;58903;47.210;8.618;2022-11-30T01:28:52;94244.16;;;25.01;44.87
71194;BME280;58903;47.210;8.618;2022-11-30T01:31:22;94243.44;;;25.01;45.37
71194;BME280;58903;47.210;8.618;2022-11-30T01:33:52;94243.44;;;25.01;44.85
71194;BME280;58903;47.210;8.618;2022-11-30T01:36:25;94247.66;;;25.02;45.17
71194;BME280;58903;47.210;8.618;2022-11-30T01:38:56;94242.69;;;25.00;45.31
71194;BME280;58903;47.210;8.618;2022-11-30T01:41:31;94251.69;;;25.01;44.72
71194;BME280;58903;47.210;8.618;2022-11-30T01:47:16;94247.66;;;25.02;45.30
71194;BME280;58903;47.210;8.618;2022-11-30T01:50:02;94251.69;;;25.01;45.21
71194;BME280;58903;47.210;8.618;2022-11-30T01:52:35;94252.41;;;25.01;45.14
71194;BME280;58903;47.210;8.618;2022-11-30T01:55:36;94246.19;;;25.01;45.59
71194;BME280;58903;47.210;8.618;2022-11-30T01:58:24;94255.94;;;25.02;44.83
71194;BME280;58903;47.210;8.618;2022-11-30T02:01:10;94255.19;;;25.01;44.72
71194;BME280;58903;47.210;8.618;2022-11-30T02:04:07;94253.69;;;25.00;44.78
71194;BME280;58903;47.210;8.618;2022-11-30T02:06:36;94260.44;;;24.99;45.17
71194;BME280;58903;47.210;8.618;2022-11-30T02:09:02;94252.94;;;25.00;45.52
71194;BME280;58903;47.210;8.618;2022-11-30T02:11:28;94251.47;;;24.99;44.73
71194;BME280;58903;47.210;8.618;2022-11-30T02:20:15;94261.19;;;25.00;45.57
71194;BME280;58903;47.210;8.618;2022-11-30T02:31:09;94255.69;;;25.00;44.86
71194;BME280;58903;47.210;8.618;2022-11-30T02:33:42;94264.47;;;24.98;45.41
71194;BME280;58903;47.210;8.618;2022-11-30T02:36:10;94253.47;;;24.98;45.15
71194;BME280;58903;47.210;8.618;2022-11-30T02:38:47;94258.97;;;24.98;44.87
71194;BME280;58903;47.210;8.618;2022-11-30T02:41:33;94258.97;;;24.98;45.39
71194;BME280;58903;47.210;8.618;2022-11-30T02:44:11;94257.47;;;24.97;45.21
71194;BME280;58903;47.210;8.618;2022-11-30T02:47:19;94262.47;;;24.99;45.12
71194;BME280;58903;47.210;8.618;2022-11-30T02:50:44;94262.47;;;24.99;44.70
71194;BME280;58903;47.210;8.618;2022-11-30T02:53:20;94259.72;;;24.99;44.73
71194;BME280;58903;47.210;8.618;2022-11-30T02:55:54;94252.72;;;24.98;44.85
71194;BME280;58903;47.210;8.618;2022-11-30T02:58:33;94251.94;;;24.97;44.83
71194;BME280;58903;47.210;8.618;2022-11-30T03:01:10;94252.72;;;24.98;45.57
71194;BME280;58903;47.210;8.618;2022-11-30T03:03:55;94259.19;;;25.00;45.53
71194;BME280;58903;47.210;8.618;2022-11-30T03:06:29;94254.22;;;24.99;45.20
71194;BME280;58903;47.210;8.618;2022-11-30T03:09:28;94254.44;;;25.01;45.61
71194;BME280;58903;47.210;8.618;2022-11-30T03:12:22;94257.19;;;25.01;44.88
71194;BME280;58903;47.210;8.618;2022-11-30T03:14:51;94254.44;;;25.01;44.69
71194;BME280;58903;47.210;8.618;2022-11-30T03:17:49;94257.19;;;25.01;44.88
71194;BME280;58903;47.210;8.618;2022-11-30T03:20:26;94260.44;;;24.99;44.86
71194;BME280;58903;47.210;8.618;2022-11-30T03:22:53;94253.69;;;25.00;45.03
71194;BME280;58903;47.210;8.618;2022-11-30T03:25:20;94259.19;;;25.00;45.04
71194;BME280;58903;47.210;8.618;2022-11-30T03:27:59;94265.47;;;25.01;45.23
71194;BME280;58903;47.210;8.618;2022-11-30T03:30:25;94261.19;;;25.00;45.21
71194;BME280;58903;47.210;8.618;2022-11-30T03:32:51;94260.44;;;24.99;44.60
71194;BME280;58903;47.210;8.618;2022-11-30T03:35:17;94262.72;;;25.01;44.88
71194;BME280;58903;47.210;8.618;2022-11-30T03:37:46;94262.47;;;24.99;44.96
71194;BME280;58903;47.210;8.618;2022-11-30T03:40:15;94266.69;;;25.00;45.36
71194;BME280;58903;47.210;8.618;2022-11-30T03:42:51;94255.19;;;25.01;45.02
71194;BME280;58903;47.210;8.618;2022-11-30T03:45:54;94264.19;;;25.02;44.81
71194;BME280;58903;47.210;8.618;2022-11-30T03:48:23;94271.19;;;25.03;45.21
71194;BME280;58903;47.210;8.618;2022-11-30T03:51:02;94270.44;;;25.02;45.13
71194;BME280;58903;47.210;8.618;2022-11-30T03:53:48;94259.94;;;25.01;44.53
71194;BME280;58903;47.210;8.618;2022-11-30T03:56:16;94256.44;;;25.00;45.14
71194;BME280;58903;47.210;8.618;2022-11-30T03:58:42;94259.94;;;25.01;45.27
71194;BME280;58903;47.210;8.618;2022-11-30T04:01:22;94262.72;;;25.01;45.25
71194;BME280;58903;47.210;8.618;2022-11-30T04:03:50;94268.22;;;25.01;44.99
71194;BME280;58903;47.210;8.618;2022-11-30T04:06:18;94265.47;;;25.01;45.50
71194;BME280;58903;47.210;8.618;2022-11-30T04:08:44;94261.19;;;25.00;44.70
71194;BME280;58903;47.210;8.618;2022-11-30T04:11:43;94256.44;;;25.00;45.13
71194;BME280;58903;47.210;8.618;2022-11-30T04:14:22;94260.44;;;24.99;44.99
71194;BME280;58903;47.210;8.618;2022-11-30T04:16:59;94256.22;;;24.98;45.24
71194;BME280;58903;47.210;8.618;2022-11-30T04:19:34;94265.22;;;24.99;45.29
71194;BME280;58903;47.210;8.618;2022-11-30T04:22:09;94267.22;;;24.98;45.33
71194;BME280;58903;47.210;8.618;2022-11-30T04:24:51;94265.22;;;24.99;44.66
71194;BME280;58903;47.210;8.618;2022-11-30T04:27:19;94266.47;;;24.98;44.95
71194;BME280;58903;47.210;8.618;2022-11-30T04:29:45;94266.47;;;24.98;45.14
71194;BME280;58903;47.210;8.618;2022-11-30T04:32:13;94258.22;;;24.98;45.36
71194;BME280;58903;47.210;8.618;2022-11-30T04:34:39;94265.22;;;24.99;44.80
71194;BME280;58903;47.210;8.618;2022-11-30T04:37:05;94254.69;;;24.97;45.37
71194;BME280;58903;47.210;8.618;2022-11-30T04:39:33;94259.47;;;24.97;45.02
71194;BME280;58903;47.210;8.618;2022-11-30T04:42:00;94261.72;;;24.98;44.71
71194;BME280;58903;47.210;8.618;2022-11-30T04:44:38;94258.97;;;24.98;44.66
71194;BME280;58903;47.210;8.618;2022-11-30T04:47:39;94253.47;;;24.98;45.21
71194;BME280;58903;47.210;8.618;2022-11-30T04:50:07;94251.47;;;24.99;45.16
71194;BME280;58903;47.210;8.618;2022-11-30T04:52:40;94251.94;;;24.97;44.89
71194;BME280;58903;47.210;8.618;2022-11-30T04:55:09;94252.19;;;24.99;45.16
71194;BME280;58903;47.210;8.618;2022-11-30T04:57:44;94250.19;;;25.00;45.05
71194;BME280;58903;47.210;8.618;2022-11-30T05:00:11;94255.47;;;24.98;44.85
71194;BME280;58903;47.210;8.618;2022-11-30T05:02:37;94252.19;;;24.99;44.70
71194;BME280;58903;47.210;8.618;2022-11-30T05:05:06;94248.72;;;24.99;45.33
71194;BME280;58903;47.210;8.618;2022-11-30T05:07:33;94248.72;;;24.99;44.72
71194;BME280;58903;47.210;8.618;2022-11-30T05:10:06;94249.44;;;24.99;44.90
71194;BME280;58903;47.210;8.618;2022-11-30T05:12:34;94250.94;;;25.00;44.30
71194;BME280;58903;47.210;8.618;2022-11-30T05:15:08;94251.69;;;25.01;44.87
71194;BME280;58903;47.210;8.618;2022-11-30T05:17:52;94250.19;;;25.00;44.91
71194;BME280;58903;47.210;8.618;2022-11-30T05:20:24;94258.44;;;25.00;45.17
71194;BME280;58903;47.210;8.618;2022-11-30T05:22:50;94254.22;;;24.99;44.78
71194;BME280;58903;47.210;8.618;2022-11-30T05:25:18;94263.44;;;25.01;44.71
71194;BME280;58903;47.210;8.618;2022-11-30T05:27:45;94250.19;;;25.00;44.58
71194;BME280;58903;47.210;8.618;2022-11-30T05:30:12;94245.44;;;25.00;44.96
71194;BME280;58903;47.210;8.618;2022-11-30T05:32:37;94254.44;;;25.01;45.36
71194;BME280;58903;47.210;8.618;2022-11-30T05:35:06;94261.19;;;25.00;44.98
71194;BME280;58903;47.210;8.618;2022-11-30T05:37:38;94255.69;;;25.00;44.59
71194;BME280;58903;47.210;8.618;2022-11-30T05:40:19;94253.19;;;25.02;45.27
71194;BME280;58903;47.210;8.618;2022-11-30T05:42:54;94257.19;;;25.01;44.92
71194;BME280;58903;47.210;8.618;2022-11-30T05:45:30;94252.94;;;25.00;45.16
71194;BME280;58903;47.210;8.618;2022-11-30T05:47:57;94260.19;;;25.03;45.49
71194;BME280;58903;47.210;8.618;2022-11-30T05:50:25;94260.19;;;25.03;45.66
71194;BME280;58903;47.210;8.618;2022-11-30T05:53:00;94260.19;;;25.03;44.89
71194;BME280;58903;47.210;8.618;2022-11-30T05:55:30;94260.94;;;25.03;44.00
71194;BME280;58903;47.210;8.618;2022-11-30T05:58:05;94264.66;;;25.06;43.95
71194;BME280;58903;47.210;8.618;2022-11-30T06:00:32;94265.63;;;25.14;43.85
71194;BME280;58903;47.210;8.618;2022-11-30T06:03:05;94259.31;;;25.19;44.84
71194;BME280;58903;47.210;8.618;2022-11-30T06:05:33;94259.53;;;25.21;43.90
71194;BME280;58903;47.210;8.618;2022-11-30T06:08:05;94263.28;;;25.23;44.16
71194;BME280;58903;47.210;8.618;2022-11-30T06:10:34;94254.53;;;25.25;44.11
71194;BME280;58903;47.210;8.618;2022-11-30T06:13:34;94257.28;;;25.25;44.00
71194;BME280;58903;47.210;8.618;2022-11-30T06:16:03;94257.53;;;25.27;43.47
71194;BME280;58903;47.210;8.618;2022-11-30T06:18:47;94248.00;;;25.28;43.90
71194;BME280;58903;47.210;8.618;2022-11-30T06:21:22;94258.00;;;25.31;43.38
71194;BME280;58903;47.210;8.618;2022-11-30T06:23:48;94254.72;;;25.32;42.88
71194;BME280;58903;47.210;8.618;2022-11-30T06:26:14;94260.22;;;25.32;43.38
71194;BME280;58903;47.210;8.618;2022-11-30T06:28:49;94262.47;;;25.34;43.12
71194;BME280;58903;47.210;8.618;2022-11-30T06:31:15;94258.91;;;25.39;43.07
71194;BME280;58903;47.210;8.618;2022-11-30T06:33:41;94257.44;;;25.38;42.45
71194;BME280;58903;47.210;8.618;2022-11-30T06:36:25;94259.69;;;25.34;42.03
71194;BME280;58903;47.210;8.618;2022-11-30T06:39:21;94263.50;;;25.31;42.29
71194;BME280;58903;47.210;8.618;2022-11-30T06:41:55;94265.03;;;25.26;42.31
71194;BME280;58903;47.210;8.618;2022-11-30T06:44:21;94264.28;;;25.26;42.83
71194;BME280;58903;47.210;8.618;2022-11-30T06:46:47;94264.28;;;25.26;42.46
71194;BME280;58903;47.210;8.618;2022-11-30T06:49:26;94256.03;;;25.26;42.85
71194;BME280;58903;47.210;8.618;2022-11-30T06:51:57;94259.06;;;25.22;42.47
71194;BME280;58903;47.210;8.618;2022-11-30T06:54:23;94257.03;;;25.23;42.83
71194;BME280;58903;47.210;8.618;2022-11-30T06:56:51;94263.81;;;25.22;43.04
71194;BME280;58903;47.210;8.618;2022-11-30T06:59:23;94256.31;;;25.22;43.76
71194;BME280;58903;47.210;8.618;2022-11-30T07:01:49;94259.53;;;25.21;43.57
71194;BME280;58903;47.210;8.618;2022-11-30T07:04:15;94265.34;;;25.17;43.38
71194;BME280;58903;47.210;8.618;2022-11-30T07:06:44;94264.81;;;25.19;43.96
71194;BME280;58903;47.210;8.618;2022-11-30T07:09:10;94268.31;;;25.19;42.70
71194;BME280;58903;47.210;8.618;2022-11-30T07:11:39;94264.59;;;25.17;43.64
71194;BME280;58903;47.210;8.618;2022-11-30T07:14:22;94261.59;;;25.15;43.08
71194;BME280;58903;47.210;8.618;2022-11-30T07:17:00;94269.06;;;25.20;43.27
71194;BME280;58903;47.210;8.618;2022-11-30T07:19:34;94265.81;;;25.21;43.31
71194;BME280;58903;47.210;8.618;2022-11-30T07:22:21;94263.28;;;25.23;43.12
71194;BME280;58903;47.210;8.618;2022-11-30T07:24:56;94261.81;;;25.22;42.86
71194;BME280;58903;47.210;8.618;2022-11-30T07:27:42;94264.59;;;25.17;42.90
71194;BME280;58903;47.210;8.618;2022-11-30T07:30:09;94258.59;;;25.13;43.59
71194;BME280;58903;47.210;8.618;2022-11-30T07:32:35;94266.88;;;25.13;43.48
71194;BME280;58903;47.210;8.618;2022-11-30T07:35:00;94259.88;;;25.12;43.64
71194;BME280;58903;47.210;8.618;2022-11-30T07:37:27;94257.84;;;25.12;44.00
71194;BME280;58903;47.210;8.618;2022-11-30T07:39:52;94264.34;;;25.15;43.70
71194;BME280;58903;47.210;8.618;2022-11-30T07:42:37;94254.84;;;25.16;43.80
71194;BME280;58903;47.210;8.618;2022-11-30T07:45:11;94261.84;;;25.17;43.65
71194;BME280;58903;47.210;8.618;2022-11-30T07:47:48;94268.09;;;25.17;43.82
71194;BME280;58903;47.210;8.618;2022-11-30T07:50:21;94262.81;;;25.19;43.92
71194;BME280;58903;47.210;8.618;2022-11-30T07:53:01;94268.03;;;25.23;43.68
71194;BME280;58903;47.210;8.618;2022-11-30T07:55:27;94263.53;;;25.25;43.97
71194;BME280;58903;47.210;8.618;2022-11-30T07:58:02;94271.28;;;25.27;43.81
71194;BME280;58903;47.210;8.618;2022-11-30T08:00:28;94275.00;;;25.29;44.36
71194;BME280;58903;47.210;8.618;2022-11-30T08:03:00;94275.25;;;25.31;43.99
71194;BME280;58903;47.210;8.618;2022-11-30T08:05:35;94278.97;;;25.34;44.70
71194;BME280;58903;47.210;8.618;2022-11-30T08:08:03;94272.00;;;25.33;43.35
71194;BME280;58903;47.210;8.618;2022-11-30T08:10:35;94269.00;;;25.31;43.44
71194;BME280;58903;47.210;8.618;2022-11-30T08:13:14;94268.53;;;25.27;43.99
71194;BME280;58903;47.210;8.618;2022-11-30T08:15:41;94262.81;;;25.19;43.61
71194;BME280;58903;47.210;8.618;2022-11-30T08:18:09;94271.31;;;25.21;44.07
71194;BME280;58903;47.210;8.618;2022-11-30T08:20:43;94270.56;;;25.21;44.67
71194;BME280;58903;47.210;8.618;2022-11-30T08:23:12;94277.34;;;25.20;44.42
71194;BME280;58903;47.210;8.618;2022-11-30T08:25:41;94286.34;;;25.20;44.06
71194;BME280;58903;47.210;8.618;2022-11-30T08:28:13;94283.59;;;25.20;44.41
71194;BME280;58903;47.210;8.618;2022-11-30T08:30:41;94273.06;;;25.19;44.29
71194;BME280;58903;47.210;8.618;2022-11-30T08:33:07;94287.06;;;25.21;44.65
71194;BME280;58903;47.210;8.618;2022-11-30T08:35:33;94288.34;;;25.20;44.96
71194;BME280;58903;47.210;8.618;2022-11-30T08:38:02;94295.09;;;25.19;44.99
71194;BME280;58903;47.210;8.618;2022-11-30T08:40:28;94290.88;;;25.18;44.40
71194;BME280;58903;47.210;8.618;2022-11-30T08:43:05;94290.34;;;25.19;44.66
71194;BME280;58903;47.210;8.618;2022-11-30T08:45:37;94298.31;;;25.23;45.19
71194;BME280;58903;47.210;8.618;2022-11-30T08:48:04;94293.31;;;25.27;45.08
71194;BME280;58903;47.210;8.618;2022-11-30T08:50:30;94289.53;;;25.30;44.76
71194;BME280;58903;47.210;8.618;2022-11-30T08:52:56;94293.25;;;25.32;44.00
71194;BME280;58903;47.210;8.618;2022-11-30T08:55:27;94292.03;;;25.28;44.11
71194;BME280;58903;47.210;8.618;2022-11-30T08:57:53;94292.78;;;25.28;41.13
71194;BME280;58903;47.210;8.618;2022-11-30T09:00:37;94305.81;;;25.28;43.95
71194;BME280;58903;47.210;8.618;2022-11-30T09:03:22;94306.03;;;25.30;43.57
71194;BME280;58903;47.210;8.618;2022-11-30T09:06:19;94307.53;;;25.31;41.54
71194;BME280;58903;47.210;8.618;2022-11-30T09:08:56;94303.28;;;25.30;42.96
71194;BME280;58903;47.210;8.618;2022-11-30T09:11:26;94298.53;;;25.30;42.49
71194;BME280;58903;47.210;8.618;2022-11-30T09:13:54;94300.81;;;25.26;41.93
71194;BME280;58903;47.210;8.618;2022-11-30T09:19:41;94300.84;;;25.21;41.44
71194;BME280;58903;47.210;8.618;2022-11-30T09:22:09;94298.59;;;25.19;41.38
71194;BME280;58903;47.210;8.618;2022-11-30T09:24:38;94303.59;;;25.21;42.69
71194;BME280;58903;47.210;8.618;2022-11-30T09:27:14;94308.38;;;25.20;43.37
71194;BME280;58903;47.210;8.618;2022-11-30T09:29:40;94308.09;;;25.24;42.69
71194;BME280;58903;47.210;8.618;2022-11-30T09:32:05;94310.31;;;25.25;43.41
71194;BME280;58903;47.210;8.618;2022-11-30T09:34:37;94302.06;;;25.25;43.89
71194;BME280;58903;47.210;8.618;2022-11-30T09:37:35;94313.06;;;25.31;44.36
71194;BME280;58903;47.210;8.618;2022-11-30T09:40:06;94313.53;;;25.35;43.39
71194;BME280;58903;47.210;8.618;2022-11-30T09:45:30;94305.28;;;25.29;42.73
71194;BME280;58903;47.210;8.618;2022-11-30T09:51:09;94315.34;;;25.27;43.83
71194;BME280;58903;47.210;8.618;2022-11-30T09:53:56;94306.03;;;25.30;43.84
71194;BME280;58903;47.210;8.618;2022-11-30T09:56:34;94312.28;;;25.30;44.36
71194;BME280;58903;47.210;8.618;2022-11-30T10:01:44;94309.78;;;25.32;44.03
71194;BME280;58903;47.210;8.618;2022-11-30T10:04:22;94312.75;;;25.34;43.68
71194;BME280;58903;47.210;8.618;2022-11-30T10:24:09;94295.38;;;25.15;43.90
71194;BME280;58903;47.210;8.618;2022-11-30T10:26:54;94297.63;;;25.17;44.01
71194;BME280;58903;47.210;8.618;2022-11-30T10:29:33;94302.38;;;25.16;44.72
71194;BME280;58903;47.210;8.618;2022-11-30T10:32:17;94296.13;;;25.16;45.09
71194;BME280;58903;47.210;8.618;2022-11-30T10:34:50;94302.09;;;25.20;44.43
71194;BME280;58903;47.210;8.618;2022-11-30T10:37:22;94290.09;;;25.17;44.93
71194;BME280;58903;47.210;8.618;2022-11-30T10:40:16;94292.09;;;25.17;45.08
71194;BME280;58903;47.210;8.618;2022-11-30T10:42:47;94291.38;;;25.16;45.34
71194;BME280;58903;47.210;8.618;2022-11-30T10:45:23;94297.63;;;25.17;45.03
71194;BME280;58903;47.210;8.618;2022-11-30T10:48:02;94287.34;;;25.17;44.86
71194;BME280;58903;47.210;8.618;2022-11-30T10:50:50;94288.09;;;25.18;44.77
71194;BME280;58903;47.210;8.618;2022-11-30T10:53:26;94288.88;;;25.18;45.36
71194;BME280;58903;47.210;8.618;2022-11-30T10:56:08;94286.38;;;25.15;45.17
71194;BME280;58903;47.210;8.618;2022-11-30T11:01:47;94277.63;;;25.16;45.35
71194;BME280;58903;47.210;8.618;2022-11-30T11:04:31;94275.34;;;25.15;46.00
71194;BME280;58903;47.210;8.618;2022-11-30T11:07:15;94276.88;;;25.16;45.50
71194;BME280;58903;47.210;8.618;2022-11-30T11:09:49;94281.09;;;25.17;46.40
71194;BME280;58903;47.210;8.618;2022-11-30T11:12:23;94265.34;;;25.17;46.52
71194;BME280;58903;47.210;8.618;2022-11-30T11:15:16;94264.81;;;25.19;45.97
71194;BME280;58903;47.210;8.618;2022-11-30T11:17:42;94275.34;;;25.20;47.53
71194;BME280;58903;47.210;8.618;2022-11-30T11:20:31;94273.84;;;25.19;46.95
71194;BME280;58903;47.210;8.618;2022-11-30T11:23:02;94271.31;;;25.21;47.04
71194;BME280;58903;47.210;8.618;2022-11-30T11:25:33;94276.81;;;25.21;46.38
71194;BME280;58903;47.210;8.618;2022-11-30T11:28:20;94280.56;;;25.24;46.89
71194;BME280;58903;47.210;8.618;2022-11-30T11:30:52;94277.81;;;25.24;47.11
71194;BME280;58903;47.210;8.618;2022-11-30T11:33:27;94275.28;;;25.26;46.38
71194;BME280;58903;47.210;8.618;2022-11-30T11:36:14;94276.28;;;25.28;46.26
71194;BME280;58903;47.210;8.618;2022-11-30T11:38:45;94280.78;;;25.31;46.47
71194;BME280;58903;47.210;8.618;2022-11-30T11:41:49;94276.75;;;25.32;46.51
71194;BME280;58903;47.210;8.618;2022-11-30T11:44:21;94281.03;;;25.28;46.52
71194;BME280;58903;47.210;8.618;2022-11-30T11:47:01;94271.78;;;25.25;46.00
71194;BME280;58903;47.210;8.618;2022-11-30T11:49:31;94275.00;;;25.29;46.30
71194;BME280;58903;47.210;8.618;2022-11-30T11:52:14;94268.53;;;25.27;45.57
71194;BME280;58903;47.210;8.618;2022-11-30T11:55:11;94273.22;;;25.32;45.52
71194;BME280;58903;47.210;8.618;2022-11-30T11:57:47;94278.28;;;25.28;45.29
71194;BME280;58903;47.210;8.618;2022-11-30T12:00:19;94282.00;;;25.30;45.14
71194;BME280;58903;47.210;8.618;2022-11-30T12:03:16;94284.25;;;25.32;45.28
71194;BME280;58903;47.210;8.618;2022-11-30T12:06:10;94282.25;;;25.32;45.90
71194;BME280;58903;47.210;8.618;2022-11-30T12:09:23;94280.78;;;25.26;45.83
71194;BME280;58903;47.210;8.618;2022-11-30T12:11:48;94279.53;;;25.27;45.39
71194;BME280;58903;47.210;8.618;2022-11-30T12:14:17;94281.78;;;25.28;45.04
71194;BME280;58903;47.210;8.618;2022-11-30T12:19:39;94279.53;;;25.27;45.94
71194;BME280;58903;47.210;8.618;2022-11-30T12:22:50;94275.28;;;25.26;45.27
71194;BME280;58903;47.210;8.618;2022-11-30T12:25:26;94283.75;;;25.33;45.08
71194;BME280;58903;47.210;8.618;2022-11-30T12:34:04;94275.75;;;25.30;45.92
71194;BME280;58903;47.210;8.618;2022-11-30T12:42:24;94275.53;;;25.28;45.73
71194;BME280;58903;47.210;8.618;2022-11-30T12:53:48;94272.97;;;25.35;45.46
71194;BME280;58903;47.210;8.618;2022-11-30T12:56:43;94268.47;;;25.38;46.29
71194;BME280;58903;47.210;8.618;2022-11-30T13:00:20;94267.41;;;25.41;46.24
71194;BME280;58903;47.210;8.618;2022-11-30T13:08:11;94263.69;;;25.44;45.95
71194;BME280;58903;47.210;8.618;2022-11-30T13:10:48;94262.63;;;25.47;45.26
71194;BME280;58903;47.210;8.618;2022-11-30T13:13:27;94264.13;;;25.48;45.16
71194;BME280;58903;47.210;8.618;2022-11-30T13:16:03;94262.41;;;25.45;44.94
71194;BME280;58903;47.210;8.618;2022-11-30T13:18:33;94266.13;;;25.48;44.93
71194;BME280;58903;47.210;8.618;2022-11-30T13:21:13;94266.38;;;25.50;44.30
71194;BME280;58903;47.210;8.618;2022-11-30T13:24:21;94268.13;;;25.47;44.37
71194;BME280;58903;47.210;8.618;2022-11-30T13:26:59;94262.88;;;25.49;43.25
71194;BME280;58903;47.210;8.618;2022-11-30T13:32:14;94256.41;;;25.47;42.25
71194;BME280;58903;47.210;8.618;2022-11-30T13:34:41;94261.16;;;25.46;42.87
71194;BME280;58903;47.210;8.618;2022-11-30T13:37:21;94258.91;;;25.45;42.87
71194;BME280;58903;47.210;8.618;2022-11-30T13:39:57;94268.44;;;25.43;41.91
71194;BME280;58903;47.210;8.618;2022-11-30T13:42:42;94275.94;;;25.43;42.15
71194;BME280;58903;47.210;8.618;2022-11-30T13:50:24;94272.16;;;25.40;41.86
71194;BME280;58903;47.210;8.618;2022-11-30T13:58:15;94273.97;;;25.38;42.03
71194;BME280;58903;47.210;8.618;2022-11-30T14:04:16;94262.94;;;25.38;41.89
71194;BME280;58903;47.210;8.618;2022-11-30T14:06:53;94270.47;;;25.37;41.47
71194;BME280;58903;47.210;8.618;2022-11-30T14:12:46;94270.94;;;25.36;41.28
71194;BME280;58903;47.210;8.618;2022-11-30T14:18:12;94264.94;;;25.37;42.10
71194;BME280;58903;47.210;8.618;2022-11-30T14:21:01;94270.94;;;25.36;41.19
71194;BME280;58903;47.210;8.618;2022-11-30T14:26:09;94273.00;;;25.30;41.80
71194;BME280;58903;47.210;8.618;2022-11-30T14:31:28;94276.75;;;25.32;42.77
71194;BME280;58903;47.210;8.618;2022-11-30T14:34:15;94284.00;;;25.30;42.09
71194;BME280;58903;47.210;8.618;2022-11-30T14:36:51;94277.75;;;25.29;41.83
71194;BME280;58903;47.210;8.618;2022-11-30T14:39:43;94278.03;;;25.26;42.29
71194;BME280;58903;47.210;8.618;2022-11-30T14:42:25;94280.78;;;25.26;43.00
71194;BME280;58903;47.210;8.618;2022-11-30T14:44:53;94285.78;;;25.27;43.40
71194;BME280;58903;47.210;8.618;2022-11-30T14:47:31;94283.06;;;25.22;43.10
71194;BME280;58903;47.210;8.618;2022-11-30T14:50:05;94281.31;;;25.24;43.03
71194;BME280;58903;47.210;8.618;2022-11-30T14:58:35;94289.53;;;25.30;42.72
71194;BME280;58903;47.210;8.618;2022-11-30T15:01:19;94276.28;;;25.28;43.17
71194;BME280;58903;47.210;8.618;2022-11-30T15:04:14;94281.03;;;25.28;42.85
71194;BME280;58903;47.210;8.618;2022-11-30T15:06:48;94285.06;;;25.27;42.34
71194;BME280;58903;47.210;8.618;2022-11-30T15:09:27;94281.81;;;25.23;42.97
71194;BME280;58903;47.210;8.618;2022-11-30T15:11:57;94277.53;;;25.27;42.45
71194;BME280;58903;47.210;8.618;2022-11-30T15:14:24;94271.75;;;25.31;42.21
71194;BME280;58903;47.210;8.618;2022-11-30T15:16:56;94282.25;;;25.32;42.32
71194;BME280;58903;47.210;8.618;2022-11-30T15:19:27;94280.28;;;25.27;42.34
71194;BME280;58903;47.210;8.618;2022-11-30T15:21:55;94283.53;;;25.26;42.28
71194;BME280;58903;47.210;8.618;2022-11-30T15:24:23;94280.78;;;25.26;42.53
71194;BME280;58903;47.210;8.618;2022-11-30T15:27:03;94282.28;;;25.27;42.91
71194;BME280;58903;47.210;8.618;2022-11-30T15:29:38;94285.78;;;25.27;42.52
71194;BME280;58903;47.210;8.618;2022-11-30T15:32:15;94284.00;;;25.30;42.66
71194;BME280;58903;47.210;8.618;2022-11-30T15:37:32;94289.53;;;25.30;43.21
71194;BME280;58903;47.210;8.618;2022-11-30T15:40:29;94287.81;;;25.27;42.66